Starlake, Wisconsin
Current Conditions -  °F | °C
As of 9:35 AM on Saturday 25 Oct 2014 (Local Time) from KEGV Reporting Station
Clear Clear  
Wind Chill: 50°   Ceiling: Unl
Heat Index: 50°   Visibility: 10mi
Dew Point: 33°   Wind: 17mph
Humidity: 52%   Direction: 300°WNW
Pressure: 29.83"   Gusts: 24mph
Location:  46.0405°N, 89.4656°W
Report Text: KEGV 251435Z AUTO 30015G21KT 10SM CLR 10/01 A2983 RMK AO2 T01000005
Loading
Personal Weather Stations






























Interactive Weather Map
Tropical Storm Tracking
New forecast layout! Learn more

10-Day Weather Forecast

Advertisements
Track Severe Weather on mobile